Bookmark and Share
Track history (hours):
 

Hozan Maru

Last reported at 2014-Apr-23 07:33 UTC. Time now 2014-Apr-24 02:27 UTC.
Position N 34°39' E 135°24'.

Length 38 m; draft 3.6 m.

Type: Tug. MMSI: 431401501.

NotesDate/timePositionNaut miles runAvg speedWind from/ knotsBaromVisibWave heightAir tempDewpointWater temp
2014-Apr-23 07:33N 34°39' E 135°24'0 0.1
2014-Apr-23 06:33N 34°39' E 135°24'5 5.0
2014-Apr-23 05:28N 34°33' E 135°26'0 0.3
2014-Apr-23 04:33N 34°33' E 135°26'0 0.1
2014-Apr-23 03:21N 34°33' E 135°26'0 0.6
2014-Apr-23 02:33N 34°33' E 135°27'0 0.1
2014-Apr-23 01:33N 34°33' E 135°26'0 0.0
2014-Apr-23 00:33N 34°33' E 135°26'2 1.8
2014-Apr-22 23:33N 34°33' E 135°24'1 1.1
2014-Apr-22 22:33N 34°33' E 135°25'5 5.2
2014-Apr-22 21:33N 34°34' E 135°19'1010.1
2014-Apr-22 20:33N 34°35' E 135°07'7 7.5
2014-Apr-22 19:33N 34°38' E 134°59'8 7.8
2014-Apr-22 18:33N 34°35' E 135°08'6 5.7
2014-Apr-22 17:33N 34°40' E 135°11'0 0.0
2014-Apr-22 16:33N 34°40' E 135°11'0 0.0
2014-Apr-22 15:33N 34°40' E 135°11'0 0.0
2014-Apr-22 14:33N 34°40' E 135°11'0 0.0
2014-Apr-22 13:33N 34°40' E 135°11'0 0.0
2014-Apr-22 12:33N 34°40' E 135°11'0 0.0
2014-Apr-22 11:33N 34°40' E 135°11'0 0.0
2014-Apr-22 10:33N 34°40' E 135°11'1 1.5
2014-Apr-22 09:33N 34°39' E 135°12'1211.0
2014-Apr-22 08:29N 34°33' E 135°25'1 0.8
2014-Apr-22 07:33N 34°33' E 135°25'1 0.9
2014-Apr-22 06:28N 34°33' E 135°27'0 0.0
2014-Apr-22 05:33N 34°33' E 135°27'0 0.0
2014-Apr-22 04:26N 34°33' E 135°27'0 0.0
2014-Apr-22 03:33N 34°33' E 135°27'0 0.0
2014-Apr-22 02:33N 34°33' E 135°27'1 1.4
2014-Apr-22 01:32N 34°33' E 135°25'3 3.3
2014-Apr-22 00:32N 34°33' E 135°21'3 3.5
2014-Apr-21 23:33N 34°36' E 135°24'0 0.0
2014-Apr-21 22:33N 34°36' E 135°24'0 0.0
2014-Apr-21 21:33N 34°36' E 135°24'10 9.9
2014-Apr-21 20:33N 34°35' E 135°12'1211.8
2014-Apr-21 19:33N 34°37' E 134°58'8 8.2
2014-Apr-21 18:33N 34°35' E 135°07'8 0.8
2014-Apr-21 08:33N 34°39' E 135°16'8 8.0
2014-Apr-21 07:33N 34°39' E 135°26'1 0.9
2014-Apr-21 06:33N 34°39' E 135°26'0 0.0
2014-Apr-21 05:33N 34°39' E 135°26'0 0.0
2014-Apr-21 04:32N 34°39' E 135°26'0 0.0
2014-Apr-21 03:33N 34°39' E 135°26'0 0.0
2014-Apr-21 02:33N 34°39' E 135°26'0 0.0
2014-Apr-21 01:33N 34°39' E 135°26'2 2.3
2014-Apr-21 00:33N 34°38' E 135°24'5 2.5
2014-Apr-20 22:33N 34°33' E 135°25'5 4.9
2014-Apr-20 21:33N 34°34' E 135°19'9 0.2
2014-Apr-19 09:34N 34°40' E 135°27'1110.9
2014-Apr-19 08:33N 34°38' E 135°14'1312.9
2014-Apr-19 07:33N 34°38' E 134°58'9 0.9
2014-Apr-18 21:19N 34°40' E 134°48'6 0.5
2014-Apr-18 10:12N 34°38' E 134°54'813.1
2014-Apr-18 09:33N 34°37' E 135°04'1212.4
2014-Apr-18 08:33N 34°38' E 135°19'7 6.6
2014-Apr-18 07:32N 34°39' E 135°27'1 0.9
2014-Apr-18 06:33N 34°38' E 135°27'3 3.1
2014-Apr-18 05:33N 34°36' E 135°24'0 0.2
2014-Apr-18 04:33N 34°36' E 135°24'0 0.0
2014-Apr-18 03:31N 34°36' E 135°24'3 2.0
2014-Apr-18 02:16N 34°34' E 135°24'0 0.2
2014-Apr-18 01:33N 34°34' E 135°24'4 3.8
2014-Apr-18 00:34N 34°33' E 135°20'5 5.1
2014-Apr-17 23:33N 34°38' E 135°23'4 4.1
2014-Apr-17 22:33N 34°39' E 135°28'4 0.3
2014-Apr-17 08:32N 34°37' E 135°24'5 4.9
2014-Apr-17 07:33N 34°32' E 135°24'0 0.2
2014-Apr-17 04:32N 34°32' E 135°24'2 2.1
2014-Apr-17 03:33N 34°33' E 135°26'1 0.0
2014-Apr-16 13:26N 34°33' E 135°27'4 4.2
2014-Apr-16 12:33N 34°31' E 135°23'1 0.7
2014-Apr-16 11:33N 34°31' E 135°24'0 0.0
2014-Apr-16 10:32N 34°31' E 135°24'0 0.0
2014-Apr-16 09:33N 34°31' E 135°24'0 0.0
2014-Apr-16 08:33N 34°31' E 135°24'0 0.0
2014-Apr-16 07:33N 34°31' E 135°24'1 0.6
2014-Apr-16 06:30N 34°31' E 135°23'2 1.7
2014-Apr-16 05:30N 34°32' E 135°21'2 2.0
2014-Apr-16 04:33N 34°31' E 135°23'0 0.0
2014-Apr-16 03:33N 34°31' E 135°23'3 2.3
2014-Apr-16 02:23N 34°33' E 135°23'2 2.0
2014-Apr-16 01:33N 34°33' E 135°25'2 0.1
2014-Apr-15 06:32N 34°31' E 135°25'2 2.1
2014-Apr-15 05:34N 34°33' E 135°25'1 0.5
2014-Apr-15 03:34N 34°33' E 135°27'0 0.0
2014-Apr-15 02:34N 34°33' E 135°27'1 1.1
2014-Apr-15 01:33N 34°33' E 135°25'1 0.7
2014-Apr-15 00:33N 34°33' E 135°25'4 3.7
2014-Apr-14 23:34N 34°35' E 135°21'6 0.4
2014-Apr-14 07:33N 34°39' E 135°26'1 1.5
2014-Apr-14 06:33N 34°39' E 135°24'1 0.8
2014-Apr-14 05:33N 34°40' E 135°25'  

Dump ship's entire track history

sailing weather and tide predictions

Hozan Maru — JJ4010 — position and weather